sensor_id;sensor_type;location;lat;lon;timestamp;pressure;altitude;pressure_sealevel;temperature
24639;BMP180;1641;51.306;12.384;2023-09-19T00:00:45;99394.00;;;20.50
24639;BMP180;1641;51.306;12.384;2023-09-19T00:03:12;99379.00;;;20.50
24639;BMP180;1641;51.306;12.384;2023-09-19T00:05:38;99389.00;;;20.20
24639;BMP180;1641;51.306;12.384;2023-09-19T00:08:05;99389.00;;;20.20
24639;BMP180;1641;51.306;12.384;2023-09-19T00:10:32;99384.00;;;20.20
24639;BMP180;1641;51.306;12.384;2023-09-19T00:13:00;99374.00;;;20.10
24639;BMP180;1641;51.306;12.384;2023-09-19T00:15:37;99380.00;;;20.20
24639;BMP180;1641;51.306;12.384;2023-09-19T00:18:05;99392.00;;;20.20
24639;BMP180;1641;51.306;12.384;2023-09-19T00:20:38;99377.00;;;20.10
24639;BMP180;1641;51.306;12.384;2023-09-19T00:23:04;99413.00;;;20.20
24639;BMP180;1641;51.306;12.384;2023-09-19T00:25:32;99408.00;;;20.50
24639;BMP180;1641;51.306;12.384;2023-09-19T00:28:00;99412.00;;;20.50
24639;BMP180;1641;51.306;12.384;2023-09-19T00:30:26;99386.00;;;20.40
24639;BMP180;1641;51.306;12.384;2023-09-19T00:32:52;99403.00;;;20.60
24639;BMP180;1641;51.306;12.384;2023-09-19T00:35:18;99388.00;;;20.40
24639;BMP180;1641;51.306;12.384;2023-09-19T00:37:49;99380.00;;;20.40
24639;BMP180;1641;51.306;12.384;2023-09-19T00:40:14;99387.00;;;20.10
24639;BMP180;1641;51.306;12.384;2023-09-19T00:42:43;99388.00;;;20.30
24639;BMP180;1641;51.306;12.384;2023-09-19T00:45:09;99390.00;;;20.20
24639;BMP180;1641;51.306;12.384;2023-09-19T00:47:40;99338.00;;;20.10
24639;BMP180;1641;51.306;12.384;2023-09-19T00:50:07;99380.00;;;20.20
24639;BMP180;1641;51.306;12.384;2023-09-19T00:52:36;99389.00;;;20.30
24639;BMP180;1641;51.306;12.384;2023-09-19T00:55:05;99387.00;;;20.10
24639;BMP180;1641;51.306;12.384;2023-09-19T00:57:31;99376.00;;;20.00
24639;BMP180;1641;51.306;12.384;2023-09-19T00:59:58;99360.00;;;20.00
24639;BMP180;1641;51.306;12.384;2023-09-19T01:02:23;99369.00;;;19.90
24639;BMP180;1641;51.306;12.384;2023-09-19T01:04:49;99373.00;;;20.00
24639;BMP180;1641;51.306;12.384;2023-09-19T01:07:14;99379.00;;;19.90
24639;BMP180;1641;51.306;12.384;2023-09-19T01:09:41;99370.00;;;19.80
24639;BMP180;1641;51.306;12.384;2023-09-19T01:12:06;99362.00;;;20.00
24639;BMP180;1641;51.306;12.384;2023-09-19T01:14:41;99385.00;;;19.90
24639;BMP180;1641;51.306;12.384;2023-09-19T01:17:30;99391.00;;;20.00
24639;BMP180;1641;51.306;12.384;2023-09-19T01:20:23;99391.00;;;19.90
24639;BMP180;1641;51.306;12.384;2023-09-19T01:23:00;99384.00;;;20.00
24639;BMP180;1641;51.306;12.384;2023-09-19T01:30:59;99403.00;;;19.60
24639;BMP180;1641;51.306;12.384;2023-09-19T01:33:28;99404.00;;;19.40
24639;BMP180;1641;51.306;12.384;2023-09-19T01:35:58;99398.00;;;19.40
24639;BMP180;1641;51.306;12.384;2023-09-19T01:38:25;99408.00;;;19.50
24639;BMP180;1641;51.306;12.384;2023-09-19T01:41:03;99404.00;;;19.50
24639;BMP180;1641;51.306;12.384;2023-09-19T01:43:35;99402.00;;;19.60
24639;BMP180;1641;51.306;12.384;2023-09-19T01:46:14;99397.00;;;19.60
24639;BMP180;1641;51.306;12.384;2023-09-19T01:48:48;99413.00;;;19.50
24639;BMP180;1641;51.306;12.384;2023-09-19T01:51:20;99419.00;;;19.70
24639;BMP180;1641;51.306;12.384;2023-09-19T01:53:57;99418.00;;;19.70
24639;BMP180;1641;51.306;12.384;2023-09-19T01:56:34;99420.00;;;19.50
24639;BMP180;1641;51.306;12.384;2023-09-19T01:59:05;99431.00;;;19.50
24639;BMP180;1641;51.306;12.384;2023-09-19T02:01:31;99432.00;;;19.70
24639;BMP180;1641;51.306;12.384;2023-09-19T02:03:57;99429.00;;;19.60
24639;BMP180;1641;51.306;12.384;2023-09-19T02:06:23;99440.00;;;19.50
24639;BMP180;1641;51.306;12.384;2023-09-19T02:08:50;99448.00;;;19.40
24639;BMP180;1641;51.306;12.384;2023-09-19T02:11:15;99445.00;;;19.40
24639;BMP180;1641;51.306;12.384;2023-09-19T02:13:41;99423.00;;;19.30
24639;BMP180;1641;51.306;12.384;2023-09-19T02:16:07;99447.00;;;19.30
24639;BMP180;1641;51.306;12.384;2023-09-19T02:18:34;99457.00;;;19.40
24639;BMP180;1641;51.306;12.384;2023-09-19T02:21:00;99459.00;;;19.50
24639;BMP180;1641;51.306;12.384;2023-09-19T02:23:26;99399.00;;;19.70
24639;BMP180;1641;51.306;12.384;2023-09-19T02:25:54;99448.00;;;19.70
24639;BMP180;1641;51.306;12.384;2023-09-19T02:28:20;99451.00;;;19.80
24639;BMP180;1641;51.306;12.384;2023-09-19T02:30:48;99454.00;;;19.60
24639;BMP180;1641;51.306;12.384;2023-09-19T02:33:15;99461.00;;;19.50
24639;BMP180;1641;51.306;12.384;2023-09-19T02:35:40;99466.00;;;19.60
24639;BMP180;1641;51.306;12.384;2023-09-19T02:38:06;99457.00;;;19.60
24639;BMP180;1641;51.306;12.384;2023-09-19T02:40:36;99459.00;;;19.60
24639;BMP180;1641;51.306;12.384;2023-09-19T02:43:02;99447.00;;;19.50
24639;BMP180;1641;51.306;12.384;2023-09-19T02:45:28;99457.00;;;19.30
24639;BMP180;1641;51.306;12.384;2023-09-19T02:47:55;99459.00;;;19.40
24639;BMP180;1641;51.306;12.384;2023-09-19T02:50:20;99455.00;;;19.30
24639;BMP180;1641;51.306;12.384;2023-09-19T02:52:46;99426.00;;;19.40
24639;BMP180;1641;51.306;12.384;2023-09-19T02:55:16;99455.00;;;19.40
24639;BMP180;1641;51.306;12.384;2023-09-19T02:57:53;99464.00;;;19.50
24639;BMP180;1641;51.306;12.384;2023-09-19T03:00:21;99458.00;;;19.60
24639;BMP180;1641;51.306;12.384;2023-09-19T03:02:48;99459.00;;;19.50
24639;BMP180;1641;51.306;12.384;2023-09-19T03:05:13;99468.00;;;19.50
24639;BMP180;1641;51.306;12.384;2023-09-19T03:07:39;99439.00;;;19.70
24639;BMP180;1641;51.306;12.384;2023-09-19T03:10:06;99449.00;;;19.80
24639;BMP180;1641;51.306;12.384;2023-09-19T03:12:32;99480.00;;;19.70
24639;BMP180;1641;51.306;12.384;2023-09-19T03:14:59;99480.00;;;19.80
24639;BMP180;1641;51.306;12.384;2023-09-19T03:17:25;99485.00;;;19.90
24639;BMP180;1641;51.306;12.384;2023-09-19T03:19:50;99486.00;;;19.70
24639;BMP180;1641;51.306;12.384;2023-09-19T03:22:15;99484.00;;;19.60
24639;BMP180;1641;51.306;12.384;2023-09-19T03:24:41;99488.00;;;19.50
24639;BMP180;1641;51.306;12.384;2023-09-19T03:27:09;99490.00;;;19.50
24639;BMP180;1641;51.306;12.384;2023-09-19T03:29:35;99492.00;;;19.50
24639;BMP180;1641;51.306;12.384;2023-09-19T03:32:00;99499.00;;;19.50
24639;BMP180;1641;51.306;12.384;2023-09-19T03:34:26;99497.00;;;19.40
24639;BMP180;1641;51.306;12.384;2023-09-19T03:36:52;99477.00;;;19.30
24639;BMP180;1641;51.306;12.384;2023-09-19T03:39:17;99498.00;;;19.40
24639;BMP180;1641;51.306;12.384;2023-09-19T03:41:42;99503.00;;;19.50
24639;BMP180;1641;51.306;12.384;2023-09-19T03:44:08;99499.00;;;19.50
24639;BMP180;1641;51.306;12.384;2023-09-19T03:46:33;99498.00;;;19.40
24639;BMP180;1641;51.306;12.384;2023-09-19T03:49:00;99501.00;;;19.70
24639;BMP180;1641;51.306;12.384;2023-09-19T03:51:25;99507.00;;;19.60
24639;BMP180;1641;51.306;12.384;2023-09-19T03:53:51;99495.00;;;19.60
24639;BMP180;1641;51.306;12.384;2023-09-19T03:56:16;99509.00;;;19.50
24639;BMP180;1641;51.306;12.384;2023-09-19T03:58:41;99513.00;;;19.30
24639;BMP180;1641;51.306;12.384;2023-09-19T04:01:06;99521.00;;;19.40
24639;BMP180;1641;51.306;12.384;2023-09-19T04:03:33;99510.00;;;19.20
24639;BMP180;1641;51.306;12.384;2023-09-19T04:06:15;99512.00;;;19.20
24639;BMP180;1641;51.306;12.384;2023-09-19T04:08:40;99516.00;;;19.30
24639;BMP180;1641;51.306;12.384;2023-09-19T04:11:06;99515.00;;;19.20
24639;BMP180;1641;51.306;12.384;2023-09-19T04:13:32;99521.00;;;19.10
24639;BMP180;1641;51.306;12.384;2023-09-19T04:15:57;99535.00;;;19.20
24639;BMP180;1641;51.306;12.384;2023-09-19T04:18:23;99530.00;;;19.20
24639;BMP180;1641;51.306;12.384;2023-09-19T04:20:51;99529.00;;;19.30
24639;BMP180;1641;51.306;12.384;2023-09-19T04:23:17;99542.00;;;19.10
24639;BMP180;1641;51.306;12.384;2023-09-19T04:25:43;99477.00;;;19.20
24639;BMP180;1641;51.306;12.384;2023-09-19T04:28:09;99539.00;;;19.20
24639;BMP180;1641;51.306;12.384;2023-09-19T04:30:36;99540.00;;;19.20
24639;BMP180;1641;51.306;12.384;2023-09-19T04:33:01;99533.00;;;19.30
24639;BMP180;1641;51.306;12.384;2023-09-19T04:35:27;99537.00;;;19.30
24639;BMP180;1641;51.306;12.384;2023-09-19T04:37:56;99547.00;;;19.30
24639;BMP180;1641;51.306;12.384;2023-09-19T04:40:22;99524.00;;;19.30
24639;BMP180;1641;51.306;12.384;2023-09-19T04:42:54;99550.00;;;19.20
24639;BMP180;1641;51.306;12.384;2023-09-19T04:45:27;99557.00;;;19.20
24639;BMP180;1641;51.306;12.384;2023-09-19T04:47:54;99567.00;;;19.10
24639;BMP180;1641;51.306;12.384;2023-09-19T04:50:19;99544.00;;;19.00
24639;BMP180;1641;51.306;12.384;2023-09-19T04:52:50;99574.00;;;19.20
24639;BMP180;1641;51.306;12.384;2023-09-19T04:55:17;99579.00;;;19.10
24639;BMP180;1641;51.306;12.384;2023-09-19T04:57:47;99569.00;;;19.10
24639;BMP180;1641;51.306;12.384;2023-09-19T05:00:17;99565.00;;;19.00
24639;BMP180;1641;51.306;12.384;2023-09-19T05:02:45;99585.00;;;18.80
24639;BMP180;1641;51.306;12.384;2023-09-19T05:05:14;99582.00;;;19.00
24639;BMP180;1641;51.306;12.384;2023-09-19T05:07:40;99592.00;;;19.00
24639;BMP180;1641;51.306;12.384;2023-09-19T05:10:32;99588.00;;;18.80
24639;BMP180;1641;51.306;12.384;2023-09-19T05:13:00;99587.00;;;18.80
24639;BMP180;1641;51.306;12.384;2023-09-19T05:15:29;99586.00;;;18.80
24639;BMP180;1641;51.306;12.384;2023-09-19T05:17:55;99577.00;;;18.70
24639;BMP180;1641;51.306;12.384;2023-09-19T05:20:26;99580.00;;;18.80
24639;BMP180;1641;51.306;12.384;2023-09-19T05:23:02;99588.00;;;18.80
24639;BMP180;1641;51.306;12.384;2023-09-19T05:25:32;99594.00;;;18.70
24639;BMP180;1641;51.306;12.384;2023-09-19T05:28:00;99594.00;;;18.60
24639;BMP180;1641;51.306;12.384;2023-09-19T05:30:29;99605.00;;;18.80
24639;BMP180;1641;51.306;12.384;2023-09-19T05:32:54;99613.00;;;18.80
24639;BMP180;1641;51.306;12.384;2023-09-19T05:35:20;99610.00;;;19.10
24639;BMP180;1641;51.306;12.384;2023-09-19T05:37:47;99595.00;;;19.10
24639;BMP180;1641;51.306;12.384;2023-09-19T05:40:16;99595.00;;;18.90
24639;BMP180;1641;51.306;12.384;2023-09-19T05:42:41;99619.00;;;18.90
24639;BMP180;1641;51.306;12.384;2023-09-19T05:45:09;99614.00;;;19.00
24639;BMP180;1641;51.306;12.384;2023-09-19T05:47:41;99608.00;;;18.70
24639;BMP180;1641;51.306;12.384;2023-09-19T05:50:09;99616.00;;;18.70
24639;BMP180;1641;51.306;12.384;2023-09-19T05:52:38;99626.00;;;18.90
24639;BMP180;1641;51.306;12.384;2023-09-19T05:55:06;99610.00;;;19.10
24639;BMP180;1641;51.306;12.384;2023-09-19T05:57:35;99623.00;;;19.30
24639;BMP180;1641;51.306;12.384;2023-09-19T06:00:00;99630.00;;;19.20
24639;BMP180;1641;51.306;12.384;2023-09-19T06:02:26;99631.00;;;19.50
24639;BMP180;1641;51.306;12.384;2023-09-19T06:04:55;99631.00;;;20.60
24639;BMP180;1641;51.306;12.384;2023-09-19T06:07:24;99639.00;;;21.50
24639;BMP180;1641;51.306;12.384;2023-09-19T06:09:54;99645.00;;;21.60
24639;BMP180;1641;51.306;12.384;2023-09-19T06:12:21;99660.00;;;21.80
24639;BMP180;1641;51.306;12.384;2023-09-19T06:14:46;99646.00;;;22.30
24639;BMP180;1641;51.306;12.384;2023-09-19T06:17:12;99668.00;;;22.50
24639;BMP180;1641;51.306;12.384;2023-09-19T06:19:38;99670.00;;;23.00
24639;BMP180;1641;51.306;12.384;2023-09-19T06:22:03;99670.00;;;23.80
24639;BMP180;1641;51.306;12.384;2023-09-19T06:24:29;99676.00;;;24.60
24639;BMP180;1641;51.306;12.384;2023-09-19T06:26:54;99683.00;;;24.90
24639;BMP180;1641;51.306;12.384;2023-09-19T06:29:20;99690.00;;;25.40
24639;BMP180;1641;51.306;12.384;2023-09-19T06:31:46;99687.00;;;26.80
24639;BMP180;1641;51.306;12.384;2023-09-19T06:34:12;99690.00;;;26.50
24639;BMP180;1641;51.306;12.384;2023-09-19T06:36:39;99693.00;;;26.80
24639;BMP180;1641;51.306;12.384;2023-09-19T06:39:05;99690.00;;;26.50
24639;BMP180;1641;51.306;12.384;2023-09-19T06:41:31;99676.00;;;26.90
24639;BMP180;1641;51.306;12.384;2023-09-19T06:43:57;99687.00;;;27.00
24639;BMP180;1641;51.306;12.384;2023-09-19T06:46:23;99690.00;;;26.90
24639;BMP180;1641;51.306;12.384;2023-09-19T06:48:48;99656.00;;;26.30
24639;BMP180;1641;51.306;12.384;2023-09-19T06:51:14;99692.00;;;27.40
24639;BMP180;1641;51.306;12.384;2023-09-19T06:53:41;99698.00;;;28.40
24639;BMP180;1641;51.306;12.384;2023-09-19T06:56:06;99665.00;;;27.50
24639;BMP180;1641;51.306;12.384;2023-09-19T06:58:32;99701.00;;;26.60
24639;BMP180;1641;51.306;12.384;2023-09-19T07:01:00;99716.00;;;24.60
24639;BMP180;1641;51.306;12.384;2023-09-19T07:03:26;99685.00;;;24.90
24639;BMP180;1641;51.306;12.384;2023-09-19T07:05:56;99716.00;;;26.80
24639;BMP180;1641;51.306;12.384;2023-09-19T07:08:23;99719.00;;;26.90
24639;BMP180;1641;51.306;12.384;2023-09-19T07:10:48;99726.00;;;25.40
24639;BMP180;1641;51.306;12.384;2023-09-19T07:13:15;99723.00;;;24.90
24639;BMP180;1641;51.306;12.384;2023-09-19T07:15:42;99731.00;;;24.90
24639;BMP180;1641;51.306;12.384;2023-09-19T07:18:13;99719.00;;;24.80
24639;BMP180;1641;51.306;12.384;2023-09-19T07:20:40;99744.00;;;24.70
24639;BMP180;1641;51.306;12.384;2023-09-19T07:23:11;99751.00;;;22.50
24639;BMP180;1641;51.306;12.384;2023-09-19T07:25:38;99728.00;;;23.00
24639;BMP180;1641;51.306;12.384;2023-09-19T07:28:07;99748.00;;;23.60
24639;BMP180;1641;51.306;12.384;2023-09-19T07:30:36;99754.00;;;23.20
24639;BMP180;1641;51.306;12.384;2023-09-19T07:33:03;99767.00;;;22.30
24639;BMP180;1641;51.306;12.384;2023-09-19T07:35:30;99769.00;;;21.50
24639;BMP180;1641;51.306;12.384;2023-09-19T07:37:56;99780.00;;;21.60
24639;BMP180;1641;51.306;12.384;2023-09-19T07:40:21;99774.00;;;23.10
24639;BMP180;1641;51.306;12.384;2023-09-19T07:42:48;99780.00;;;23.10
24639;BMP180;1641;51.306;12.384;2023-09-19T07:45:15;99787.00;;;22.90
24639;BMP180;1641;51.306;12.384;2023-09-19T07:47:51;99778.00;;;23.60
24639;BMP180;1641;51.306;12.384;2023-09-19T07:50:19;99789.00;;;23.60
24639;BMP180;1641;51.306;12.384;2023-09-19T07:52:48;99802.00;;;22.50
24639;BMP180;1641;51.306;12.384;2023-09-19T07:55:16;99790.00;;;22.40
24639;BMP180;1641;51.306;12.384;2023-09-19T07:57:44;99797.00;;;22.60
24639;BMP180;1641;51.306;12.384;2023-09-19T08:00:10;99791.00;;;23.30
24639;BMP180;1641;51.306;12.384;2023-09-19T08:02:36;99781.00;;;22.40
24639;BMP180;1641;51.306;12.384;2023-09-19T08:05:03;99796.00;;;22.40
24639;BMP180;1641;51.306;12.384;2023-09-19T08:07:32;99807.00;;;21.60
24639;BMP180;1641;51.306;12.384;2023-09-19T08:09:57;99795.00;;;21.50
24639;BMP180;1641;51.306;12.384;2023-09-19T08:12:24;99811.00;;;21.50
24639;BMP180;1641;51.306;12.384;2023-09-19T08:14:49;99822.00;;;22.20
24639;BMP180;1641;51.306;12.384;2023-09-19T08:17:15;99799.00;;;21.90
24639;BMP180;1641;51.306;12.384;2023-09-19T08:19:40;99808.00;;;22.10
24639;BMP180;1641;51.306;12.384;2023-09-19T08:22:07;99777.00;;;21.10
24639;BMP180;1641;51.306;12.384;2023-09-19T08:24:35;99808.00;;;21.10
24639;BMP180;1641;51.306;12.384;2023-09-19T08:27:00;99739.00;;;20.90
24639;BMP180;1641;51.306;12.384;2023-09-19T08:29:27;99823.00;;;20.70
24639;BMP180;1641;51.306;12.384;2023-09-19T08:31:56;99806.00;;;20.70
24639;BMP180;1641;51.306;12.384;2023-09-19T08:34:25;99819.00;;;20.70
24639;BMP180;1641;51.306;12.384;2023-09-19T08:36:51;99804.00;;;21.20
24639;BMP180;1641;51.306;12.384;2023-09-19T08:39:19;99823.00;;;22.00
24639;BMP180;1641;51.306;12.384;2023-09-19T08:41:45;99783.00;;;21.30
24639;BMP180;1641;51.306;12.384;2023-09-19T08:44:10;99788.00;;;21.10
24639;BMP180;1641;51.306;12.384;2023-09-19T08:46:37;99801.00;;;21.60
24639;BMP180;1641;51.306;12.384;2023-09-19T08:49:49;99769.00;;;21.50
24639;BMP180;1641;51.306;12.384;2023-09-19T08:52:25;99801.00;;;21.30
24639;BMP180;1641;51.306;12.384;2023-09-19T08:54:52;99809.00;;;21.90
24639;BMP180;1641;51.306;12.384;2023-09-19T08:57:21;99813.00;;;22.10
24639;BMP180;1641;51.306;12.384;2023-09-19T08:59:48;99821.00;;;22.90
24639;BMP180;1641;51.306;12.384;2023-09-19T09:02:15;99831.00;;;21.90
24639;BMP180;1641;51.306;12.384;2023-09-19T09:04:41;99826.00;;;22.20
24639;BMP180;1641;51.306;12.384;2023-09-19T09:07:12;99820.00;;;23.20
24639;BMP180;1641;51.306;12.384;2023-09-19T09:09:38;99822.00;;;24.10
24639;BMP180;1641;51.306;12.384;2023-09-19T09:12:13;99788.00;;;24.00
24639;BMP180;1641;51.306;12.384;2023-09-19T09:14:40;99812.00;;;24.30
24639;BMP180;1641;51.306;12.384;2023-09-19T09:17:06;99825.00;;;24.90
24639;BMP180;1641;51.306;12.384;2023-09-19T09:19:32;99813.00;;;24.00
24639;BMP180;1641;51.306;12.384;2023-09-19T09:22:10;99819.00;;;24.20
24639;BMP180;1641;51.306;12.384;2023-09-19T09:24:36;99822.00;;;24.10
24639;BMP180;1641;51.306;12.384;2023-09-19T09:27:04;99823.00;;;24.20
24639;BMP180;1641;51.306;12.384;2023-09-19T09:32:28;99824.00;;;24.40
24639;BMP180;1641;51.306;12.384;2023-09-19T09:34:55;99800.00;;;23.70
24639;BMP180;1641;51.306;12.384;2023-09-19T09:37:22;99821.00;;;24.50
24639;BMP180;1641;51.306;12.384;2023-09-19T09:39:51;99822.00;;;24.80
24639;BMP180;1641;51.306;12.384;2023-09-19T09:42:36;99808.00;;;24.40
24639;BMP180;1641;51.306;12.384;2023-09-19T09:45:19;99827.00;;;23.50
24639;BMP180;1641;51.306;12.384;2023-09-19T09:48:02;99821.00;;;23.10
24639;BMP180;1641;51.306;12.384;2023-09-19T09:50:46;99833.00;;;23.30
24639;BMP180;1641;51.306;12.384;2023-09-19T09:53:25;99830.00;;;23.80
24639;BMP180;1641;51.306;12.384;2023-09-19T09:56:00;99846.00;;;23.50
24639;BMP180;1641;51.306;12.384;2023-09-19T09:58:27;99824.00;;;23.70
24639;BMP180;1641;51.306;12.384;2023-09-19T10:00:56;99830.00;;;23.60
24639;BMP180;1641;51.306;12.384;2023-09-19T10:03:32;99848.00;;;23.50
24639;BMP180;1641;51.306;12.384;2023-09-19T10:05:59;99842.00;;;23.50
24639;BMP180;1641;51.306;12.384;2023-09-19T10:08:34;99855.00;;;23.50
24639;BMP180;1641;51.306;12.384;2023-09-19T10:11:15;99840.00;;;23.40
24639;BMP180;1641;51.306;12.384;2023-09-19T10:13:41;99846.00;;;23.90
24639;BMP180;1641;51.306;12.384;2023-09-19T10:16:09;99860.00;;;23.80
24639;BMP180;1641;51.306;12.384;2023-09-19T10:18:36;99858.00;;;23.70
24639;BMP180;1641;51.306;12.384;2023-09-19T10:21:04;99863.00;;;23.70
24639;BMP180;1641;51.306;12.384;2023-09-19T10:23:31;99851.00;;;23.70
24639;BMP180;1641;51.306;12.384;2023-09-19T10:26:00;99864.00;;;23.90
24639;BMP180;1641;51.306;12.384;2023-09-19T10:28:27;99865.00;;;23.70
24639;BMP180;1641;51.306;12.384;2023-09-19T10:30:54;99868.00;;;23.40
24639;BMP180;1641;51.306;12.384;2023-09-19T10:33:23;99859.00;;;23.00
24639;BMP180;1641;51.306;12.384;2023-09-19T10:35:52;99862.00;;;23.00
24639;BMP180;1641;51.306;12.384;2023-09-19T10:38:19;99860.00;;;23.20
24639;BMP180;1641;51.306;12.384;2023-09-19T10:40:55;99855.00;;;23.20
24639;BMP180;1641;51.306;12.384;2023-09-19T10:43:27;99851.00;;;22.90
24639;BMP180;1641;51.306;12.384;2023-09-19T10:45:59;99869.00;;;22.40
24639;BMP180;1641;51.306;12.384;2023-09-19T10:48:25;99825.00;;;22.70
24639;BMP180;1641;51.306;12.384;2023-09-19T10:51:05;99866.00;;;22.80
24639;BMP180;1641;51.306;12.384;2023-09-19T10:53:41;99848.00;;;22.90
24639;BMP180;1641;51.306;12.384;2023-09-19T10:56:08;99868.00;;;22.90
24639;BMP180;1641;51.306;12.384;2023-09-19T10:58:40;99867.00;;;23.00
24639;BMP180;1641;51.306;12.384;2023-09-19T11:01:07;99858.00;;;22.80
24639;BMP180;1641;51.306;12.384;2023-09-19T11:03:35;99865.00;;;23.10
24639;BMP180;1641;51.306;12.384;2023-09-19T11:06:04;99855.00;;;22.60
24639;BMP180;1641;51.306;12.384;2023-09-19T11:09:03;99870.00;;;22.90
24639;BMP180;1641;51.306;12.384;2023-09-19T11:11:49;99866.00;;;22.60
24639;BMP180;1641;51.306;12.384;2023-09-19T11:25:42;99835.00;;;21.70
24639;BMP180;1641;51.306;12.384;2023-09-19T11:30:42;99848.00;;;21.90
24639;BMP180;1641;51.306;12.384;2023-09-19T11:33:30;99844.00;;;21.80
24639;BMP180;1641;51.306;12.384;2023-09-19T11:36:09;99846.00;;;22.50
24639;BMP180;1641;51.306;12.384;2023-09-19T11:49:16;99846.00;;;22.60
24639;BMP180;1641;51.306;12.384;2023-09-19T11:51:45;99849.00;;;23.20
24639;BMP180;1641;51.306;12.384;2023-09-19T11:54:13;99847.00;;;22.50
24639;BMP180;1641;51.306;12.384;2023-09-19T11:56:43;99850.00;;;22.10
24639;BMP180;1641;51.306;12.384;2023-09-19T11:59:09;99843.00;;;22.40
24639;BMP180;1641;51.306;12.384;2023-09-19T12:01:38;99848.00;;;23.10
24639;BMP180;1641;51.306;12.384;2023-09-19T12:04:08;99849.00;;;22.80
24639;BMP180;1641;51.306;12.384;2023-09-19T12:06:33;99844.00;;;23.00
24639;BMP180;1641;51.306;12.384;2023-09-19T12:08:59;99840.00;;;23.20
24639;BMP180;1641;51.306;12.384;2023-09-19T12:11:30;99841.00;;;23.40
24639;BMP180;1641;51.306;12.384;2023-09-19T12:14:01;99842.00;;;23.90
24639;BMP180;1641;51.306;12.384;2023-09-19T12:16:27;99823.00;;;23.70
24639;BMP180;1641;51.306;12.384;2023-09-19T12:18:56;99845.00;;;23.70
24639;BMP180;1641;51.306;12.384;2023-09-19T12:21:28;99807.00;;;22.80
24639;BMP180;1641;51.306;12.384;2023-09-19T12:26:30;99836.00;;;23.70
24639;BMP180;1641;51.306;12.384;2023-09-19T12:28:59;99809.00;;;23.50
24639;BMP180;1641;51.306;12.384;2023-09-19T12:31:24;99826.00;;;23.20
24639;BMP180;1641;51.306;12.384;2023-09-19T12:33:54;99826.00;;;23.50
24639;BMP180;1641;51.306;12.384;2023-09-19T12:36:23;99822.00;;;23.70
24639;BMP180;1641;51.306;12.384;2023-09-19T12:38:50;99818.00;;;23.90
24639;BMP180;1641;51.306;12.384;2023-09-19T12:41:18;99830.00;;;23.90
24639;BMP180;1641;51.306;12.384;2023-09-19T12:43:49;99826.00;;;23.80
24639;BMP180;1641;51.306;12.384;2023-09-19T12:46:14;99811.00;;;24.10
24639;BMP180;1641;51.306;12.384;2023-09-19T12:48:40;99820.00;;;23.70
24639;BMP180;1641;51.306;12.384;2023-09-19T12:51:10;99830.00;;;23.80
24639;BMP180;1641;51.306;12.384;2023-09-19T12:53:41;99830.00;;;23.90
24639;BMP180;1641;51.306;12.384;2023-09-19T12:56:13;99826.00;;;23.70
24639;BMP180;1641;51.306;12.384;2023-09-19T12:58:53;99823.00;;;23.70
24639;BMP180;1641;51.306;12.384;2023-09-19T13:01:19;99818.00;;;24.10
24639;BMP180;1641;51.306;12.384;2023-09-19T13:03:45;99807.00;;;24.50
24639;BMP180;1641;51.306;12.384;2023-09-19T13:06:11;99807.00;;;24.60
24639;BMP180;1641;51.306;12.384;2023-09-19T13:08:40;99821.00;;;24.60
24639;BMP180;1641;51.306;12.384;2023-09-19T13:11:13;99822.00;;;25.00
24639;BMP180;1641;51.306;12.384;2023-09-19T13:13:44;99820.00;;;24.70
24639;BMP180;1641;51.306;12.384;2023-09-19T13:16:09;99812.00;;;23.90
24639;BMP180;1641;51.306;12.384;2023-09-19T13:18:46;99810.00;;;24.30
24639;BMP180;1641;51.306;12.384;2023-09-19T13:21:13;99820.00;;;24.40
24639;BMP180;1641;51.306;12.384;2023-09-19T13:23:52;99805.00;;;24.50
24639;BMP180;1641;51.306;12.384;2023-09-19T13:26:19;99805.00;;;24.50
24639;BMP180;1641;51.306;12.384;2023-09-19T13:28:48;99813.00;;;24.00
24639;BMP180;1641;51.306;12.384;2023-09-19T13:31:14;99808.00;;;24.00
24639;BMP180;1641;51.306;12.384;2023-09-19T13:33:48;99823.00;;;23.70
24639;BMP180;1641;51.306;12.384;2023-09-19T13:36:17;99770.00;;;24.00
24639;BMP180;1641;51.306;12.384;2023-09-19T13:38:43;99805.00;;;24.20
24639;BMP180;1641;51.306;12.384;2023-09-19T13:41:10;99802.00;;;24.30
24639;BMP180;1641;51.306;12.384;2023-09-19T13:43:39;99779.00;;;24.10
24639;BMP180;1641;51.306;12.384;2023-09-19T13:46:05;99801.00;;;24.00
24639;BMP180;1641;51.306;12.384;2023-09-19T13:48:33;99780.00;;;24.10
24639;BMP180;1641;51.306;12.384;2023-09-19T13:51:02;99797.00;;;24.20
24639;BMP180;1641;51.306;12.384;2023-09-19T13:53:28;99802.00;;;24.20
24639;BMP180;1641;51.306;12.384;2023-09-19T13:55:54;99797.00;;;23.50
24639;BMP180;1641;51.306;12.384;2023-09-19T13:58:19;99799.00;;;23.30
24639;BMP180;1641;51.306;12.384;2023-09-19T14:00:49;99810.00;;;23.20
24639;BMP180;1641;51.306;12.384;2023-09-19T14:03:15;99795.00;;;23.80
24639;BMP180;1641;51.306;12.384;2023-09-19T14:05:40;99789.00;;;24.20
24639;BMP180;1641;51.306;12.384;2023-09-19T14:08:07;99744.00;;;24.30
24639;BMP180;1641;51.306;12.384;2023-09-19T14:10:33;99788.00;;;24.10
24639;BMP180;1641;51.306;12.384;2023-09-19T14:13:00;99785.00;;;24.00
24639;BMP180;1641;51.306;12.384;2023-09-19T14:15:27;99781.00;;;24.10
24639;BMP180;1641;51.306;12.384;2023-09-19T14:17:58;99757.00;;;24.50
24639;BMP180;1641;51.306;12.384;2023-09-19T14:20:25;99788.00;;;24.60
24639;BMP180;1641;51.306;12.384;2023-09-19T14:22:53;99774.00;;;24.30
24639;BMP180;1641;51.306;12.384;2023-09-19T14:25:18;99782.00;;;24.50
24639;BMP180;1641;51.306;12.384;2023-09-19T14:27:43;99776.00;;;24.20
24639;BMP180;1641;51.306;12.384;2023-09-19T14:30:09;99766.00;;;24.10
24639;BMP180;1641;51.306;12.384;2023-09-19T14:32:38;99754.00;;;23.90
24639;BMP180;1641;51.306;12.384;2023-09-19T14:35:05;99749.00;;;23.90
24639;BMP180;1641;51.306;12.384;2023-09-19T14:37:30;99770.00;;;24.00
24639;BMP180;1641;51.306;12.384;2023-09-19T14:39:56;99766.00;;;24.10
24639;BMP180;1641;51.306;12.384;2023-09-19T14:42:21;99770.00;;;24.20
24639;BMP180;1641;51.306;12.384;2023-09-19T14:44:48;99750.00;;;24.20
24639;BMP180;1641;51.306;12.384;2023-09-19T14:47:13;99767.00;;;24.00
24639;BMP180;1641;51.306;12.384;2023-09-19T14:49:39;99771.00;;;24.20
24639;BMP180;1641;51.306;12.384;2023-09-19T14:52:09;99760.00;;;24.30